sensor_id;sensor_type;location;lat;lon;timestamp;P1;durP1;ratioP1;P2;durP2;ratioP2
48743;SDS011;34538;48.836;9.174;2023-02-26T00:01:02;3.33;;;1.80;;
48743;SDS011;34538;48.836;9.174;2023-02-26T00:03:30;4.65;;;2.20;;
48743;SDS011;34538;48.836;9.174;2023-02-26T00:05:58;2.88;;;1.60;;
48743;SDS011;34538;48.836;9.174;2023-02-26T00:08:25;3.30;;;1.45;;
48743;SDS011;34538;48.836;9.174;2023-02-26T00:10:52;3.38;;;1.70;;
48743;SDS011;34538;48.836;9.174;2023-02-26T00:13:21;5.10;;;2.05;;
48743;SDS011;34538;48.836;9.174;2023-02-26T00:15:49;4.43;;;2.15;;
48743;SDS011;34538;48.836;9.174;2023-02-26T00:18:21;3.75;;;1.60;;
48743;SDS011;34538;48.836;9.174;2023-02-26T00:20:48;3.40;;;2.05;;
48743;SDS011;34538;48.836;9.174;2023-02-26T00:23:16;3.90;;;1.70;;
48743;SDS011;34538;48.836;9.174;2023-02-26T00:25:43;2.65;;;1.75;;
48743;SDS011;34538;48.836;9.174;2023-02-26T00:28:11;3.53;;;2.05;;
48743;SDS011;34538;48.836;9.174;2023-02-26T00:30:40;2.72;;;1.52;;
48743;SDS011;34538;48.836;9.174;2023-02-26T00:33:07;4.00;;;1.98;;
48743;SDS011;34538;48.836;9.174;2023-02-26T00:35:35;2.72;;;1.73;;
48743;SDS011;34538;48.836;9.174;2023-02-26T00:38:02;3.35;;;1.70;;
48743;SDS011;34538;48.836;9.174;2023-02-26T00:40:34;5.03;;;1.95;;
48743;SDS011;34538;48.836;9.174;2023-02-26T00:43:05;3.60;;;1.60;;
48743;SDS011;34538;48.836;9.174;2023-02-26T00:45:34;3.42;;;1.90;;
48743;SDS011;34538;48.836;9.174;2023-02-26T00:48:10;2.45;;;1.48;;
48743;SDS011;34538;48.836;9.174;2023-02-26T00:50:50;5.07;;;2.00;;
48743;SDS011;34538;48.836;9.174;2023-02-26T00:53:23;2.75;;;1.77;;
48743;SDS011;34538;48.836;9.174;2023-02-26T00:55:56;4.85;;;2.20;;
48743;SDS011;34538;48.836;9.174;2023-02-26T00:58:24;2.92;;;1.92;;
48743;SDS011;34538;48.836;9.174;2023-02-26T01:00:50;2.05;;;1.65;;
48743;SDS011;34538;48.836;9.174;2023-02-26T01:03:19;4.78;;;1.60;;
48743;SDS011;34538;48.836;9.174;2023-02-26T01:05:46;4.13;;;1.95;;
48743;SDS011;34538;48.836;9.174;2023-02-26T01:08:14;5.38;;;1.80;;
48743;SDS011;34538;48.836;9.174;2023-02-26T01:10:48;2.97;;;1.70;;
48743;SDS011;34538;48.836;9.174;2023-02-26T01:13:16;2.67;;;1.92;;
48743;SDS011;34538;48.836;9.174;2023-02-26T01:15:45;3.85;;;1.85;;
48743;SDS011;34538;48.836;9.174;2023-02-26T01:18:16;3.20;;;1.97;;
48743;SDS011;34538;48.836;9.174;2023-02-26T01:20:50;2.17;;;1.65;;
48743;SDS011;34538;48.836;9.174;2023-02-26T01:23:22;3.23;;;1.60;;
48743;SDS011;34538;48.836;9.174;2023-02-26T01:25:52;5.90;;;2.10;;
48743;SDS011;34538;48.836;9.174;2023-02-26T01:28:23;3.23;;;1.80;;
48743;SDS011;34538;48.836;9.174;2023-02-26T01:30:50;2.38;;;1.77;;
48743;SDS011;34538;48.836;9.174;2023-02-26T01:33:24;4.63;;;1.50;;
48743;SDS011;34538;48.836;9.174;2023-02-26T01:35:55;4.07;;;2.10;;
48743;SDS011;34538;48.836;9.174;2023-02-26T01:38:29;4.57;;;1.87;;
48743;SDS011;34538;48.836;9.174;2023-02-26T01:44:01;3.43;;;1.93;;
48743;SDS011;34538;48.836;9.174;2023-02-26T01:46:35;4.27;;;1.90;;
48743;SDS011;34538;48.836;9.174;2023-02-26T01:49:13;4.97;;;1.77;;
48743;SDS011;34538;48.836;9.174;2023-02-26T01:51:44;2.50;;;1.80;;
48743;SDS011;34538;48.836;9.174;2023-02-26T01:54:13;4.32;;;2.13;;
48743;SDS011;34538;48.836;9.174;2023-02-26T01:56:42;3.00;;;1.60;;
48743;SDS011;34538;48.836;9.174;2023-02-26T01:59:11;3.93;;;1.67;;
48743;SDS011;34538;48.836;9.174;2023-02-26T02:04:09;5.13;;;1.97;;
48743;SDS011;34538;48.836;9.174;2023-02-26T02:06:41;3.10;;;1.73;;
48743;SDS011;34538;48.836;9.174;2023-02-26T02:09:09;2.83;;;1.50;;
48743;SDS011;34538;48.836;9.174;2023-02-26T02:11:39;5.47;;;1.77;;
48743;SDS011;34538;48.836;9.174;2023-02-26T02:14:20;2.67;;;2.00;;
48743;SDS011;34538;48.836;9.174;2023-02-26T02:16:54;6.80;;;2.17;;
48743;SDS011;34538;48.836;9.174;2023-02-26T02:19:37;4.00;;;1.60;;
48743;SDS011;34538;48.836;9.174;2023-02-26T02:22:39;2.17;;;1.40;;
48743;SDS011;34538;48.836;9.174;2023-02-26T02:28:22;3.53;;;1.93;;
48743;SDS011;34538;48.836;9.174;2023-02-26T02:33:33;2.17;;;1.27;;
48743;SDS011;34538;48.836;9.174;2023-02-26T02:36:06;3.73;;;1.77;;
48743;SDS011;34538;48.836;9.174;2023-02-26T02:38:41;2.43;;;1.60;;
48743;SDS011;34538;48.836;9.174;2023-02-26T02:41:14;4.67;;;1.60;;
48743;SDS011;34538;48.836;9.174;2023-02-26T02:43:46;2.87;;;2.00;;
48743;SDS011;34538;48.836;9.174;2023-02-26T02:46:17;3.67;;;1.63;;
48743;SDS011;34538;48.836;9.174;2023-02-26T02:48:49;5.30;;;1.80;;
48743;SDS011;34538;48.836;9.174;2023-02-26T02:51:24;4.70;;;2.17;;
48743;SDS011;34538;48.836;9.174;2023-02-26T02:53:55;3.43;;;1.77;;
48743;SDS011;34538;48.836;9.174;2023-02-26T02:56:28;7.10;;;1.90;;
48743;SDS011;34538;48.836;9.174;2023-02-26T02:59:01;5.07;;;2.17;;
48743;SDS011;34538;48.836;9.174;2023-02-26T03:01:33;4.30;;;2.23;;
48743;SDS011;34538;48.836;9.174;2023-02-26T03:04:04;4.03;;;2.17;;
48743;SDS011;34538;48.836;9.174;2023-02-26T03:06:35;4.83;;;1.67;;
48743;SDS011;34538;48.836;9.174;2023-02-26T03:09:03;3.67;;;1.80;;
48743;SDS011;34538;48.836;9.174;2023-02-26T03:11:32;3.50;;;2.00;;
48743;SDS011;34538;48.836;9.174;2023-02-26T03:14:00;3.87;;;1.90;;
48743;SDS011;34538;48.836;9.174;2023-02-26T03:16:37;4.40;;;2.40;;
48743;SDS011;34538;48.836;9.174;2023-02-26T03:19:18;3.63;;;1.93;;
48743;SDS011;34538;48.836;9.174;2023-02-26T03:21:52;3.50;;;2.03;;
48743;SDS011;34538;48.836;9.174;2023-02-26T03:24:47;6.13;;;2.30;;
48743;SDS011;34538;48.836;9.174;2023-02-26T03:29:50;3.73;;;1.80;;
48743;SDS011;34538;48.836;9.174;2023-02-26T03:32:23;3.35;;;1.95;;
48743;SDS011;34538;48.836;9.174;2023-02-26T03:34:54;4.00;;;2.27;;
48743;SDS011;34538;48.836;9.174;2023-02-26T03:37:26;2.80;;;1.60;;
48743;SDS011;34538;48.836;9.174;2023-02-26T03:39:59;6.40;;;2.03;;
48743;SDS011;34538;48.836;9.174;2023-02-26T03:42:31;4.10;;;1.70;;
48743;SDS011;34538;48.836;9.174;2023-02-26T03:45:05;5.53;;;2.20;;
48743;SDS011;34538;48.836;9.174;2023-02-26T03:47:37;4.97;;;2.23;;
48743;SDS011;34538;48.836;9.174;2023-02-26T03:50:08;3.33;;;2.10;;
48743;SDS011;34538;48.836;9.174;2023-02-26T03:52:47;7.13;;;2.37;;
48743;SDS011;34538;48.836;9.174;2023-02-26T03:55:23;3.30;;;1.70;;
48743;SDS011;34538;48.836;9.174;2023-02-26T03:58:04;3.50;;;1.63;;
48743;SDS011;34538;48.836;9.174;2023-02-26T04:00:58;4.10;;;1.80;;
48743;SDS011;34538;48.836;9.174;2023-02-26T04:03:31;4.60;;;2.20;;
48743;SDS011;34538;48.836;9.174;2023-02-26T04:06:02;6.00;;;2.13;;
48743;SDS011;34538;48.836;9.174;2023-02-26T04:08:30;3.87;;;1.83;;
48743;SDS011;34538;48.836;9.174;2023-02-26T04:10:57;5.07;;;2.17;;
48743;SDS011;34538;48.836;9.174;2023-02-26T04:13:31;4.93;;;2.00;;
48743;SDS011;34538;48.836;9.174;2023-02-26T04:15:59;4.17;;;1.77;;
48743;SDS011;34538;48.836;9.174;2023-02-26T04:18:27;4.20;;;2.20;;
48743;SDS011;34538;48.836;9.174;2023-02-26T04:20:55;3.17;;;1.60;;
48743;SDS011;34538;48.836;9.174;2023-02-26T04:23:22;4.00;;;2.30;;
48743;SDS011;34538;48.836;9.174;2023-02-26T04:25:49;5.93;;;2.20;;
48743;SDS011;34538;48.836;9.174;2023-02-26T04:28:16;5.47;;;2.50;;
48743;SDS011;34538;48.836;9.174;2023-02-26T04:30:43;3.67;;;1.80;;
48743;SDS011;34538;48.836;9.174;2023-02-26T04:33:12;5.43;;;2.57;;
48743;SDS011;34538;48.836;9.174;2023-02-26T04:35:39;6.33;;;2.67;;
48743;SDS011;34538;48.836;9.174;2023-02-26T04:38:09;6.73;;;2.10;;
48743;SDS011;34538;48.836;9.174;2023-02-26T04:40:36;4.97;;;2.33;;
48743;SDS011;34538;48.836;9.174;2023-02-26T04:43:03;7.80;;;2.80;;
48743;SDS011;34538;48.836;9.174;2023-02-26T04:45:36;5.63;;;2.30;;
48743;SDS011;34538;48.836;9.174;2023-02-26T04:48:03;4.43;;;2.03;;
48743;SDS011;34538;48.836;9.174;2023-02-26T04:50:30;5.17;;;2.60;;
48743;SDS011;34538;48.836;9.174;2023-02-26T04:52:57;6.03;;;2.30;;
48743;SDS011;34538;48.836;9.174;2023-02-26T04:55:26;8.33;;;2.23;;
48743;SDS011;34538;48.836;9.174;2023-02-26T04:57:53;6.40;;;2.50;;
48743;SDS011;34538;48.836;9.174;2023-02-26T05:00:23;4.97;;;2.40;;
48743;SDS011;34538;48.836;9.174;2023-02-26T05:02:50;4.97;;;1.93;;
48743;SDS011;34538;48.836;9.174;2023-02-26T05:05:18;4.03;;;1.80;;
48743;SDS011;34538;48.836;9.174;2023-02-26T05:07:45;5.03;;;1.80;;
48743;SDS011;34538;48.836;9.174;2023-02-26T05:10:13;3.33;;;1.73;;
48743;SDS011;34538;48.836;9.174;2023-02-26T05:12:42;3.03;;;1.87;;
48743;SDS011;34538;48.836;9.174;2023-02-26T05:15:09;3.27;;;1.70;;
48743;SDS011;34538;48.836;9.174;2023-02-26T05:17:36;2.67;;;1.40;;
48743;SDS011;34538;48.836;9.174;2023-02-26T05:20:04;5.03;;;1.77;;
48743;SDS011;34538;48.836;9.174;2023-02-26T05:22:34;4.88;;;1.60;;
48743;SDS011;34538;48.836;9.174;2023-02-26T05:25:01;2.77;;;1.63;;
48743;SDS011;34538;48.836;9.174;2023-02-26T05:27:29;3.97;;;1.90;;
48743;SDS011;34538;48.836;9.174;2023-02-26T05:29:57;4.40;;;1.60;;
48743;SDS011;34538;48.836;9.174;2023-02-26T05:32:24;5.20;;;3.20;;
48743;SDS011;34538;48.836;9.174;2023-02-26T05:34:54;12.02;;;6.53;;
48743;SDS011;34538;48.836;9.174;2023-02-26T05:37:21;9.37;;;5.23;;
48743;SDS011;34538;48.836;9.174;2023-02-26T05:39:48;4.87;;;3.03;;
48743;SDS011;34538;48.836;9.174;2023-02-26T05:42:15;7.27;;;2.57;;
48743;SDS011;34538;48.836;9.174;2023-02-26T05:44:42;5.90;;;2.20;;
48743;SDS011;34538;48.836;9.174;2023-02-26T05:47:10;3.33;;;2.00;;
48743;SDS011;34538;48.836;9.174;2023-02-26T05:49:37;4.03;;;2.00;;
48743;SDS011;34538;48.836;9.174;2023-02-26T05:52:04;3.57;;;2.20;;
48743;SDS011;34538;48.836;9.174;2023-02-26T05:54:31;3.97;;;2.27;;
48743;SDS011;34538;48.836;9.174;2023-02-26T05:56:58;5.93;;;1.90;;
48743;SDS011;34538;48.836;9.174;2023-02-26T05:59:25;2.83;;;1.87;;
48743;SDS011;34538;48.836;9.174;2023-02-26T06:01:52;5.77;;;2.13;;
48743;SDS011;34538;48.836;9.174;2023-02-26T06:04:20;4.67;;;2.57;;
48743;SDS011;34538;48.836;9.174;2023-02-26T06:06:47;5.53;;;3.13;;
48743;SDS011;34538;48.836;9.174;2023-02-26T06:09:14;5.03;;;2.13;;
48743;SDS011;34538;48.836;9.174;2023-02-26T06:11:41;5.47;;;2.80;;
48743;SDS011;34538;48.836;9.174;2023-02-26T06:14:08;5.60;;;2.20;;
48743;SDS011;34538;48.836;9.174;2023-02-26T06:16:35;8.80;;;2.60;;
48743;SDS011;34538;48.836;9.174;2023-02-26T06:19:02;3.23;;;1.80;;
48743;SDS011;34538;48.836;9.174;2023-02-26T06:21:30;7.10;;;2.63;;
48743;SDS011;34538;48.836;9.174;2023-02-26T06:23:57;4.93;;;2.10;;
48743;SDS011;34538;48.836;9.174;2023-02-26T06:26:23;6.57;;;2.40;;
48743;SDS011;34538;48.836;9.174;2023-02-26T06:28:51;4.50;;;2.20;;
48743;SDS011;34538;48.836;9.174;2023-02-26T06:31:17;4.30;;;2.10;;
48743;SDS011;34538;48.836;9.174;2023-02-26T06:33:44;4.10;;;2.30;;
48743;SDS011;34538;48.836;9.174;2023-02-26T06:36:11;4.83;;;2.90;;
48743;SDS011;34538;48.836;9.174;2023-02-26T06:38:39;8.87;;;4.27;;
48743;SDS011;34538;48.836;9.174;2023-02-26T06:41:09;5.85;;;3.42;;
48743;SDS011;34538;48.836;9.174;2023-02-26T06:43:36;13.17;;;5.20;;
48743;SDS011;34538;48.836;9.174;2023-02-26T06:46:03;6.93;;;3.47;;
48743;SDS011;34538;48.836;9.174;2023-02-26T06:48:30;4.20;;;2.93;;
48743;SDS011;34538;48.836;9.174;2023-02-26T06:50:57;3.50;;;2.33;;
48743;SDS011;34538;48.836;9.174;2023-02-26T06:53:24;5.53;;;2.60;;
48743;SDS011;34538;48.836;9.174;2023-02-26T06:55:52;3.63;;;2.83;;
48743;SDS011;34538;48.836;9.174;2023-02-26T06:58:19;5.77;;;2.53;;
48743;SDS011;34538;48.836;9.174;2023-02-26T07:00:46;4.37;;;2.40;;
48743;SDS011;34538;48.836;9.174;2023-02-26T07:03:14;4.17;;;2.47;;
48743;SDS011;34538;48.836;9.174;2023-02-26T07:05:42;10.73;;;3.27;;
48743;SDS011;34538;48.836;9.174;2023-02-26T07:08:10;7.97;;;3.00;;
48743;SDS011;34538;48.836;9.174;2023-02-26T07:10:38;5.90;;;2.40;;
48743;SDS011;34538;48.836;9.174;2023-02-26T07:13:07;4.07;;;2.33;;
48743;SDS011;34538;48.836;9.174;2023-02-26T07:15:34;6.80;;;2.77;;
48743;SDS011;34538;48.836;9.174;2023-02-26T07:18:01;6.20;;;2.40;;
48743;SDS011;34538;48.836;9.174;2023-02-26T07:20:28;2.73;;;2.30;;
48743;SDS011;34538;48.836;9.174;2023-02-26T07:22:55;2.33;;;1.80;;
48743;SDS011;34538;48.836;9.174;2023-02-26T07:25:22;4.23;;;2.03;;
48743;SDS011;34538;48.836;9.174;2023-02-26T07:27:49;3.20;;;1.70;;
48743;SDS011;34538;48.836;9.174;2023-02-26T07:30:18;3.90;;;1.60;;
48743;SDS011;34538;48.836;9.174;2023-02-26T07:32:45;3.90;;;1.90;;
48743;SDS011;34538;48.836;9.174;2023-02-26T07:35:12;2.83;;;1.90;;
48743;SDS011;34538;48.836;9.174;2023-02-26T07:37:39;2.87;;;1.67;;
48743;SDS011;34538;48.836;9.174;2023-02-26T07:40:06;4.60;;;2.10;;
48743;SDS011;34538;48.836;9.174;2023-02-26T07:42:33;2.77;;;1.90;;
48743;SDS011;34538;48.836;9.174;2023-02-26T07:45:01;5.07;;;2.20;;
48743;SDS011;34538;48.836;9.174;2023-02-26T07:47:30;4.73;;;1.83;;
48743;SDS011;34538;48.836;9.174;2023-02-26T07:49:57;4.03;;;2.10;;
48743;SDS011;34538;48.836;9.174;2023-02-26T07:52:23;3.63;;;1.60;;
48743;SDS011;34538;48.836;9.174;2023-02-26T07:54:50;3.70;;;1.85;;
48743;SDS011;34538;48.836;9.174;2023-02-26T07:57:17;4.45;;;1.65;;
48743;SDS011;34538;48.836;9.174;2023-02-26T07:59:44;2.60;;;1.50;;
48743;SDS011;34538;48.836;9.174;2023-02-26T08:02:11;6.20;;;1.60;;
48743;SDS011;34538;48.836;9.174;2023-02-26T08:04:40;3.65;;;2.03;;
48743;SDS011;34538;48.836;9.174;2023-02-26T08:07:07;3.30;;;1.92;;
48743;SDS011;34538;48.836;9.174;2023-02-26T08:09:34;4.68;;;1.77;;
48743;SDS011;34538;48.836;9.174;2023-02-26T08:12:01;3.53;;;1.60;;
48743;SDS011;34538;48.836;9.174;2023-02-26T08:14:28;5.50;;;1.88;;
48743;SDS011;34538;48.836;9.174;2023-02-26T08:16:55;4.20;;;1.67;;
48743;SDS011;34538;48.836;9.174;2023-02-26T08:19:22;3.60;;;2.10;;
48743;SDS011;34538;48.836;9.174;2023-02-26T08:21:50;4.53;;;1.60;;
48743;SDS011;34538;48.836;9.174;2023-02-26T08:24:19;2.47;;;1.90;;
48743;SDS011;34538;48.836;9.174;2023-02-26T08:26:46;2.45;;;1.45;;
48743;SDS011;34538;48.836;9.174;2023-02-26T08:29:13;4.70;;;1.60;;
48743;SDS011;34538;48.836;9.174;2023-02-26T08:31:40;3.38;;;1.63;;
48743;SDS011;34538;48.836;9.174;2023-02-26T08:34:07;2.83;;;1.30;;
48743;SDS011;34538;48.836;9.174;2023-02-26T08:36:34;3.30;;;1.88;;
48743;SDS011;34538;48.836;9.174;2023-02-26T08:39:02;3.88;;;1.60;;
48743;SDS011;34538;48.836;9.174;2023-02-26T08:41:29;4.72;;;2.33;;
48743;SDS011;34538;48.836;9.174;2023-02-26T08:43:57;4.47;;;1.60;;
48743;SDS011;34538;48.836;9.174;2023-02-26T08:46:24;4.85;;;1.83;;
48743;SDS011;34538;48.836;9.174;2023-02-26T08:48:51;5.18;;;1.70;;
48743;SDS011;34538;48.836;9.174;2023-02-26T08:51:18;1.63;;;1.23;;
48743;SDS011;34538;48.836;9.174;2023-02-26T08:53:45;2.95;;;1.35;;
48743;SDS011;34538;48.836;9.174;2023-02-26T08:56:15;4.07;;;1.42;;
48743;SDS011;34538;48.836;9.174;2023-02-26T08:58:42;3.33;;;1.08;;
48743;SDS011;34538;48.836;9.174;2023-02-26T09:01:09;3.58;;;1.15;;
48743;SDS011;34538;48.836;9.174;2023-02-26T09:03:36;3.33;;;1.40;;
48743;SDS011;34538;48.836;9.174;2023-02-26T09:06:03;4.30;;;2.28;;
48743;SDS011;34538;48.836;9.174;2023-02-26T09:08:30;12.70;;;4.93;;
48743;SDS011;34538;48.836;9.174;2023-02-26T09:10:59;1.73;;;1.10;;
48743;SDS011;34538;48.836;9.174;2023-02-26T09:13:28;2.63;;;1.25;;
48743;SDS011;34538;48.836;9.174;2023-02-26T09:15:55;2.20;;;1.15;;
48743;SDS011;34538;48.836;9.174;2023-02-26T09:18:22;2.90;;;1.83;;
48743;SDS011;34538;48.836;9.174;2023-02-26T09:20:49;4.00;;;1.50;;
48743;SDS011;34538;48.836;9.174;2023-02-26T09:23:16;2.88;;;1.20;;
48743;SDS011;34538;48.836;9.174;2023-02-26T09:25:44;2.22;;;1.40;;
48743;SDS011;34538;48.836;9.174;2023-02-26T09:28:11;3.70;;;1.48;;
48743;SDS011;34538;48.836;9.174;2023-02-26T09:30:39;7.03;;;1.45;;
48743;SDS011;34538;48.836;9.174;2023-02-26T09:33:06;6.82;;;1.50;;
48743;SDS011;34538;48.836;9.174;2023-02-26T09:35:33;1.88;;;1.25;;
48743;SDS011;34538;48.836;9.174;2023-02-26T09:38:00;4.45;;;2.00;;
48743;SDS011;34538;48.836;9.174;2023-02-26T09:40:31;2.85;;;1.27;;
48743;SDS011;34538;48.836;9.174;2023-02-26T09:43:09;3.20;;;1.35;;
48743;SDS011;34538;48.836;9.174;2023-02-26T09:45:53;3.15;;;1.70;;
48743;SDS011;34538;48.836;9.174;2023-02-26T09:48:23;2.85;;;1.38;;
48743;SDS011;34538;48.836;9.174;2023-02-26T09:50:54;5.05;;;2.25;;
48743;SDS011;34538;48.836;9.174;2023-02-26T09:53:23;4.93;;;1.48;;
48743;SDS011;34538;48.836;9.174;2023-02-26T09:55:52;2.25;;;1.45;;
48743;SDS011;34538;48.836;9.174;2023-02-26T09:58:23;3.33;;;1.52;;
48743;SDS011;34538;48.836;9.174;2023-02-26T10:00:57;3.55;;;1.80;;
48743;SDS011;34538;48.836;9.174;2023-02-26T10:03:31;4.15;;;2.03;;
48743;SDS011;34538;48.836;9.174;2023-02-26T10:06:16;3.15;;;1.83;;
48743;SDS011;34538;48.836;9.174;2023-02-26T10:08:57;4.90;;;1.60;;
48743;SDS011;34538;48.836;9.174;2023-02-26T10:11:33;3.15;;;1.65;;
48743;SDS011;34538;48.836;9.174;2023-02-26T10:14:10;3.75;;;1.70;;
48743;SDS011;34538;48.836;9.174;2023-02-26T10:16:44;2.20;;;1.45;;
48743;SDS011;34538;48.836;9.174;2023-02-26T10:19:15;3.08;;;1.38;;
48743;SDS011;34538;48.836;9.174;2023-02-26T10:21:45;3.53;;;1.40;;
48743;SDS011;34538;48.836;9.174;2023-02-26T10:24:18;2.63;;;1.33;;
48743;SDS011;34538;48.836;9.174;2023-02-26T10:26:50;3.95;;;1.50;;
48743;SDS011;34538;48.836;9.174;2023-02-26T10:29:21;4.07;;;1.48;;
48743;SDS011;34538;48.836;9.174;2023-02-26T10:32:01;3.47;;;1.27;;
48743;SDS011;34538;48.836;9.174;2023-02-26T10:34:42;3.28;;;1.13;;
48743;SDS011;34538;48.836;9.174;2023-02-26T10:37:17;1.98;;;1.05;;
48743;SDS011;34538;48.836;9.174;2023-02-26T10:39:49;3.83;;;1.52;;
48743;SDS011;34538;48.836;9.174;2023-02-26T10:42:21;1.60;;;1.08;;
48743;SDS011;34538;48.836;9.174;2023-02-26T10:45:08;2.92;;;1.00;;
48743;SDS011;34538;48.836;9.174;2023-02-26T10:47:51;5.55;;;1.20;;
48743;SDS011;34538;48.836;9.174;2023-02-26T10:50:27;2.47;;;1.17;;
48743;SDS011;34538;48.836;9.174;2023-02-26T10:52:56;2.65;;;1.30;;
48743;SDS011;34538;48.836;9.174;2023-02-26T10:55:29;2.80;;;1.30;;
48743;SDS011;34538;48.836;9.174;2023-02-26T10:58:04;2.22;;;1.52;;
48743;SDS011;34538;48.836;9.174;2023-02-26T11:00:35;3.05;;;1.60;;
48743;SDS011;34538;48.836;9.174;2023-02-26T11:03:04;2.88;;;1.42;;
48743;SDS011;34538;48.836;9.174;2023-02-26T11:05:33;2.37;;;1.20;;
48743;SDS011;34538;48.836;9.174;2023-02-26T11:08:01;1.95;;;1.17;;
48743;SDS011;34538;48.836;9.174;2023-02-26T11:10:36;2.70;;;1.10;;
48743;SDS011;34538;48.836;9.174;2023-02-26T11:13:06;2.25;;;1.15;;
48743;SDS011;34538;48.836;9.174;2023-02-26T11:15:34;3.42;;;1.40;;
48743;SDS011;34538;48.836;9.174;2023-02-26T11:18:02;1.63;;;1.20;;
48743;SDS011;34538;48.836;9.174;2023-02-26T11:20:33;1.75;;;1.30;;
48743;SDS011;34538;48.836;9.174;2023-02-26T11:23:03;1.25;;;1.00;;
48743;SDS011;34538;48.836;9.174;2023-02-26T11:25:42;1.45;;;1.00;;
48743;SDS011;34538;48.836;9.174;2023-02-26T11:28:18;3.38;;;1.15;;
48743;SDS011;34538;48.836;9.174;2023-02-26T11:30:47;3.75;;;1.25;;
48743;SDS011;34538;48.836;9.174;2023-02-26T11:33:22;3.13;;;1.20;;
48743;SDS011;34538;48.836;9.174;2023-02-26T11:35:53;3.22;;;1.15;;
48743;SDS011;34538;48.836;9.174;2023-02-26T11:38:25;1.20;;;0.75;;
48743;SDS011;34538;48.836;9.174;2023-02-26T11:40:54;1.25;;;1.13;;
48743;SDS011;34538;48.836;9.174;2023-02-26T11:43:23;0.80;;;0.80;;
48743;SDS011;34538;48.836;9.174;2023-02-26T11:45:54;1.00;;;0.70;;
48743;SDS011;34538;48.836;9.174;2023-02-26T11:48:26;1.05;;;0.80;;
48743;SDS011;34538;48.836;9.174;2023-02-26T11:50:59;3.08;;;1.00;;
48743;SDS011;34538;48.836;9.174;2023-02-26T11:53:29;2.40;;;1.38;;
48743;SDS011;34538;48.836;9.174;2023-02-26T11:56:00;1.00;;;0.90;;
48743;SDS011;34538;48.836;9.174;2023-02-26T11:58:29;1.80;;;1.20;;
48743;SDS011;34538;48.836;9.174;2023-02-26T12:01:01;1.52;;;1.00;;
48743;SDS011;34538;48.836;9.174;2023-02-26T12:03:32;2.08;;;1.40;;
48743;SDS011;34538;48.836;9.174;2023-02-26T12:06:04;0.82;;;0.80;;
48743;SDS011;34538;48.836;9.174;2023-02-26T12:08:32;1.92;;;0.85;;
48743;SDS011;34538;48.836;9.174;2023-02-26T12:14:07;1.40;;;0.90;;
48743;SDS011;34538;48.836;9.174;2023-02-26T12:16:46;1.75;;;1.20;;
48743;SDS011;34538;48.836;9.174;2023-02-26T12:19:23;1.05;;;0.70;;
48743;SDS011;34538;48.836;9.174;2023-02-26T12:22:06;1.27;;;0.85;;
48743;SDS011;34538;48.836;9.174;2023-02-26T12:24:52;1.33;;;0.80;;
48743;SDS011;34538;48.836;9.174;2023-02-26T12:27:51;0.90;;;0.90;;
48743;SDS011;34538;48.836;9.174;2023-02-26T12:30:44;1.80;;;1.15;;
48743;SDS011;34538;48.836;9.174;2023-02-26T12:33:25;1.50;;;1.00;;
48743;SDS011;34538;48.836;9.174;2023-02-26T12:36:07;1.42;;;1.00;;
48743;SDS011;34538;48.836;9.174;2023-02-26T12:38:47;2.63;;;1.02;;
48743;SDS011;34538;48.836;9.174;2023-02-26T12:41:29;1.20;;;1.00;;
48743;SDS011;34538;48.836;9.174;2023-02-26T12:44:12;1.15;;;0.98;;
48743;SDS011;34538;48.836;9.174;2023-02-26T12:46:56;1.75;;;0.80;;
48743;SDS011;34538;48.836;9.174;2023-02-26T12:49:35;1.42;;;1.00;;
48743;SDS011;34538;48.836;9.174;2023-02-26T12:52:22;1.05;;;0.88;;
48743;SDS011;34538;48.836;9.174;2023-02-26T12:55:13;1.48;;;0.82;;
48743;SDS011;34538;48.836;9.174;2023-02-26T12:58:08;3.30;;;1.20;;
48743;SDS011;34538;48.836;9.174;2023-02-26T13:00:50;1.48;;;1.00;;
48743;SDS011;34538;48.836;9.174;2023-02-26T13:03:34;1.35;;;1.00;;
48743;SDS011;34538;48.836;9.174;2023-02-26T13:06:32;1.42;;;0.70;;
48743;SDS011;34538;48.836;9.174;2023-02-26T13:09:31;0.95;;;0.82;;
48743;SDS011;34538;48.836;9.174;2023-02-26T13:12:11;0.73;;;0.50;;
48743;SDS011;34538;48.836;9.174;2023-02-26T13:14:49;0.95;;;0.65;;
48743;SDS011;34538;48.836;9.174;2023-02-26T13:17:25;0.70;;;0.70;;
48743;SDS011;34538;48.836;9.174;2023-02-26T13:19:57;1.70;;;1.00;;
48743;SDS011;34538;48.836;9.174;2023-02-26T13:22:29;2.35;;;0.95;;
48743;SDS011;34538;48.836;9.174;2023-02-26T13:25:03;1.17;;;0.82;;
48743;SDS011;34538;48.836;9.174;2023-02-26T13:27:37;1.48;;;0.90;;
48743;SDS011;34538;48.836;9.174;2023-02-26T13:30:14;1.27;;;1.00;;
48743;SDS011;34538;48.836;9.174;2023-02-26T13:32:46;0.85;;;0.60;;
48743;SDS011;34538;48.836;9.174;2023-02-26T13:35:17;1.42;;;0.90;;
48743;SDS011;34538;48.836;9.174;2023-02-26T13:37:47;1.88;;;1.08;;
48743;SDS011;34538;48.836;9.174;2023-02-26T13:40:28;0.55;;;0.55;;
48743;SDS011;34538;48.836;9.174;2023-02-26T13:43:24;0.52;;;0.50;;
48743;SDS011;34538;48.836;9.174;2023-02-26T13:46:07;1.30;;;0.70;;
48743;SDS011;34538;48.836;9.174;2023-02-26T13:48:47;1.73;;;0.95;;
48743;SDS011;34538;48.836;9.174;2023-02-26T13:51:24;1.08;;;0.68;;
48743;SDS011;34538;48.836;9.174;2023-02-26T13:53:57;2.00;;;1.23;;
48743;SDS011;34538;48.836;9.174;2023-02-26T13:56:45;2.88;;;1.17;;
48743;SDS011;34538;48.836;9.174;2023-02-26T13:59:24;1.70;;;0.80;;
48743;SDS011;34538;48.836;9.174;2023-02-26T14:01:56;1.58;;;0.75;;
48743;SDS011;34538;48.836;9.174;2023-02-26T14:04:27;0.60;;;0.60;;
48743;SDS011;34538;48.836;9.174;2023-02-26T14:06:55;2.30;;;0.95;;
48743;SDS011;34538;48.836;9.174;2023-02-26T14:09:41;0.98;;;0.63;;
48743;SDS011;34538;48.836;9.174;2023-02-26T14:12:24;1.25;;;0.82;;
48743;SDS011;34538;48.836;9.174;2023-02-26T14:18:17;1.58;;;0.80;;
48743;SDS011;34538;48.836;9.174;2023-02-26T14:20:50;0.75;;;0.60;;
48743;SDS011;34538;48.836;9.174;2023-02-26T14:23:21;0.93;;;0.52;;
48743;SDS011;34538;48.836;9.174;2023-02-26T14:26:05;0.60;;;0.55;;
48743;SDS011;34538;48.836;9.174;2023-02-26T14:28:43;0.75;;;0.60;;
48743;SDS011;34538;48.836;9.174;2023-02-26T14:31:21;0.82;;;0.60;;
48743;SDS011;34538;48.836;9.174;2023-02-26T14:33:58;0.60;;;0.60;;
48743;SDS011;34538;48.836;9.174;2023-02-26T14:36:36;0.70;;;0.60;;
48743;SDS011;34538;48.836;9.174;2023-02-26T14:39:07;1.50;;;0.50;;
48743;SDS011;34538;48.836;9.174;2023-02-26T14:41:47;1.05;;;0.60;;
48743;SDS011;34538;48.836;9.174;2023-02-26T14:44:17;1.48;;;0.80;;
48743;SDS011;34538;48.836;9.174;2023-02-26T14:46:48;2.35;;;0.50;;
48743;SDS011;34538;48.836;9.174;2023-02-26T14:49:16;1.75;;;0.50;;
48743;SDS011;34538;48.836;9.174;2023-02-26T14:51:52;3.35;;;0.85;;
48743;SDS011;34538;48.836;9.174;2023-02-26T14:54:48;2.33;;;0.65;;
48743;SDS011;34538;48.836;9.174;2023-02-26T14:57:25;1.42;;;0.65;;
48743;SDS011;34538;48.836;9.174;2023-02-26T15:00:03;1.38;;;0.47;;
48743;SDS011;34538;48.836;9.174;2023-02-26T15:02:47;0.70;;;0.60;;
48743;SDS011;34538;48.836;9.174;2023-02-26T15:05:28;0.82;;;0.52;;
48743;SDS011;34538;48.836;9.174;2023-02-26T15:08:23;0.68;;;0.45;;
48743;SDS011;34538;48.836;9.174;2023-02-26T15:11:15;1.15;;;0.63;;
48743;SDS011;34538;48.836;9.174;2023-02-26T15:17:05;1.98;;;0.63;;
48743;SDS011;34538;48.836;9.174;2023-02-26T15:19:43;2.78;;;0.65;;
48743;SDS011;34538;48.836;9.174;2023-02-26T15:22:23;1.10;;;0.80;;
48743;SDS011;34538;48.836;9.174;2023-02-26T15:24:57;1.52;;;0.80;;
48743;SDS011;34538;48.836;9.174;2023-02-26T15:27:25;1.05;;;0.60;;
48743;SDS011;34538;48.836;9.174;2023-02-26T15:29:57;1.02;;;0.70;;
48743;SDS011;34538;48.836;9.174;2023-02-26T15:32:27;0.88;;;0.60;;
48743;SDS011;34538;48.836;9.174;2023-02-26T15:34:57;0.95;;;0.70;;
48743;SDS011;34538;48.836;9.174;2023-02-26T15:37:26;0.93;;;0.70;;
48743;SDS011;34538;48.836;9.174;2023-02-26T15:39:57;0.40;;;0.40;;